createdAt,value
2017-11-15T00:02:10.646Z,2.40
2017-11-15T00:04:38.678Z,2.40
2017-11-15T00:07:06.140Z,2.40
2017-11-15T00:09:33.577Z,2.40
2017-11-15T00:12:01.050Z,2.50
2017-11-15T00:14:28.514Z,2.50
2017-11-15T00:16:56.053Z,2.40
2017-11-15T00:19:23.522Z,2.40
2017-11-15T00:21:52.817Z,2.40
2017-11-15T00:24:20.565Z,2.40
2017-11-15T00:26:48.009Z,2.40
2017-11-15T00:29:15.447Z,2.40
2017-11-15T00:31:46.834Z,2.40
2017-11-15T00:34:14.282Z,2.50
2017-11-15T00:36:41.870Z,2.50
2017-11-15T00:39:09.490Z,2.50
2017-11-15T00:41:36.953Z,2.50
2017-11-15T00:44:04.401Z,2.40
2017-11-15T00:46:31.973Z,2.40
2017-11-15T00:48:59.430Z,2.40
2017-11-15T00:51:27.459Z,2.50
2017-11-15T00:53:55.310Z,2.50
2017-11-15T00:56:22.766Z,2.50
2017-11-15T00:58:50.209Z,2.50
2017-11-15T01:01:21.641Z,2.50
2017-11-15T01:03:50.020Z,2.60
2017-11-15T01:06:18.247Z,2.60
2017-11-15T01:08:45.709Z,2.60
2017-11-15T01:11:13.304Z,2.70
2017-11-15T01:13:40.769Z,2.60
2017-11-15T01:16:08.226Z,2.60
2017-11-15T01:18:35.685Z,2.70
2017-11-15T01:21:03.777Z,2.60
2017-11-15T01:23:31.986Z,2.70
2017-11-15T01:25:59.437Z,2.70
2017-11-15T01:28:27.025Z,2.70
2017-11-15T01:31:02.188Z,2.70
2017-11-15T01:33:29.658Z,2.70
2017-11-15T01:35:57.895Z,2.60
2017-11-15T01:38:25.381Z,2.60
2017-11-15T01:40:54.754Z,2.70
2017-11-15T01:43:22.197Z,2.70
2017-11-15T01:45:49.663Z,2.60
2017-11-15T01:48:22.666Z,2.60
2017-11-15T01:50:50.150Z,2.60
2017-11-15T01:53:17.605Z,2.70
2017-11-15T01:55:45.458Z,2.60
2017-11-15T01:58:14.018Z,2.50
2017-11-15T02:00:53.291Z,2.50
2017-11-15T02:03:25.234Z,2.50
2017-11-15T02:05:52.678Z,2.50
2017-11-15T02:08:20.182Z,2.50
2017-11-15T02:10:47.629Z,2.50
2017-11-15T02:13:15.083Z,2.50
2017-11-15T02:15:42.583Z,2.50
2017-11-15T02:18:10.173Z,2.50
2017-11-15T02:20:39.334Z,2.60
2017-11-15T02:23:07.018Z,2.60
2017-11-15T02:25:34.539Z,2.60
2017-11-15T02:28:02.270Z,2.60
2017-11-15T02:30:30.515Z,2.50
2017-11-15T02:33:02.046Z,2.50
2017-11-15T02:35:29.498Z,2.50
2017-11-15T02:37:57.010Z,2.50
2017-11-15T02:40:24.437Z,2.40
2017-11-15T02:42:51.915Z,2.50
2017-11-15T02:45:19.349Z,2.40
2017-11-15T02:47:51.428Z,2.40
2017-11-15T02:50:18.901Z,2.40
2017-11-15T02:52:46.458Z,2.40
2017-11-15T02:55:13.926Z,2.30
2017-11-15T02:57:43.851Z,2.20
2017-11-15T03:00:13.024Z,2.10
2017-11-15T03:02:40.798Z,2.10
2017-11-15T03:05:08.462Z,2.10
2017-11-15T03:07:36.735Z,2.10
2017-11-15T03:10:04.198Z,2.10
2017-11-15T03:12:32.489Z,2.20
2017-11-15T03:15:00.141Z,2.20
2017-11-15T03:17:27.586Z,2.30
2017-11-15T03:19:55.018Z,2.30
2017-11-15T03:22:22.478Z,2.20
2017-11-15T03:24:50.066Z,2.20
2017-11-15T03:27:17.550Z,2.10
2017-11-15T03:29:45.814Z,2.10
2017-11-15T03:32:13.289Z,2.10
2017-11-15T03:34:44.481Z,2.00
2017-11-15T03:37:11.926Z,2.00
2017-11-15T03:39:39.370Z,2.00
2017-11-15T03:42:08.046Z,2.00
2017-11-15T03:44:35.510Z,2.10
2017-11-15T03:47:02.989Z,2.00
2017-11-15T03:49:30.655Z,2.00
2017-11-15T03:51:58.111Z,1.90
2017-11-15T03:54:26.342Z,2.00
2017-11-15T03:56:53.958Z,2.00
2017-11-15T03:59:21.409Z,2.00
2017-11-15T04:01:49.278Z,1.90
2017-11-15T04:04:21.322Z,2.00
2017-11-15T04:06:50.002Z,2.00
2017-11-15T04:09:17.469Z,1.90
2017-11-15T04:11:44.919Z,1.80
2017-11-15T04:14:12.394Z,1.80
2017-11-15T04:16:39.845Z,1.80
2017-11-15T04:19:11.607Z,1.80
2017-11-15T04:21:39.226Z,1.70
2017-11-15T04:24:06.685Z,1.70
2017-11-15T04:26:34.614Z,1.70
2017-11-15T04:29:02.109Z,1.70
2017-11-15T04:31:29.568Z,1.70
2017-11-15T04:33:57.006Z,1.60
2017-11-15T04:36:24.605Z,1.60
2017-11-15T04:38:53.418Z,1.50
2017-11-15T04:41:21.043Z,1.40
2017-11-15T04:43:48.518Z,1.40
2017-11-15T04:46:16.030Z,1.40
2017-11-15T04:48:43.526Z,1.40
2017-11-15T04:51:11.933Z,1.40
2017-11-15T04:53:39.483Z,1.40
2017-11-15T04:56:07.827Z,1.40
2017-11-15T04:58:35.278Z,1.40
2017-11-15T05:01:02.737Z,1.40
2017-11-15T05:03:31.673Z,1.50
2017-11-15T05:05:59.128Z,1.40
2017-11-15T05:08:26.596Z,1.50
2017-11-15T05:10:54.077Z,1.50
2017-11-15T05:13:21.790Z,1.40
2017-11-15T05:15:49.857Z,1.40
2017-11-15T05:18:17.315Z,1.30
2017-11-15T05:20:44.802Z,1.40
2017-11-15T05:23:12.284Z,1.30
2017-11-15T05:25:39.893Z,1.30
2017-11-15T05:28:07.361Z,1.30
2017-11-15T05:30:34.842Z,1.30
2017-11-15T05:33:02.395Z,1.40
2017-11-15T05:35:29.833Z,1.40
2017-11-15T05:37:57.517Z,1.40
2017-11-15T05:40:25.041Z,1.30
2017-11-15T05:42:53.447Z,1.20
2017-11-15T05:45:20.905Z,1.30
2017-11-15T05:47:48.356Z,1.30
2017-11-15T05:50:16.106Z,1.30
2017-11-15T05:52:43.601Z,1.30
2017-11-15T05:55:11.673Z,1.30
2017-11-15T05:57:39.127Z,1.30
2017-11-15T06:00:06.742Z,1.30
2017-11-15T06:02:34.212Z,1.30
2017-11-15T06:05:01.661Z,1.30
2017-11-15T06:07:29.411Z,1.30
2017-11-15T06:09:58.184Z,1.30
2017-11-15T06:12:25.710Z,1.40
2017-11-15T06:14:53.151Z,1.30
2017-11-15T06:17:20.588Z,1.30
2017-11-15T06:19:48.142Z,1.20
2017-11-15T06:22:15.494Z,1.10
2017-11-15T06:24:43.077Z,1.10
2017-11-15T06:27:11.052Z,1.10
2017-11-15T06:29:39.379Z,1.20
2017-11-15T06:32:07.620Z,1.20
2017-11-15T06:34:35.320Z,1.20
2017-11-15T06:37:02.745Z,1.20
2017-11-15T06:39:30.399Z,1.30
2017-11-15T06:41:58.821Z,1.30
2017-11-15T06:44:26.294Z,1.30
2017-11-15T06:46:54.000Z,1.30
2017-11-15T06:49:23.130Z,1.30
2017-11-15T06:51:50.721Z,1.30
2017-11-15T06:54:18.198Z,1.30
2017-11-15T06:56:46.589Z,1.30
2017-11-15T06:59:14.854Z,1.40
2017-11-15T07:01:42.537Z,1.30
2017-11-15T07:04:10.170Z,1.40
2017-11-15T07:06:37.634Z,1.40
2017-11-15T07:09:05.441Z,1.50
2017-11-15T07:11:32.875Z,1.50
2017-11-15T07:14:00.559Z,1.50
2017-11-15T07:16:28.328Z,1.50
2017-11-15T07:18:55.966Z,1.40
2017-11-15T07:21:23.690Z,1.40
2017-11-15T07:23:51.313Z,1.40
2017-11-15T07:26:18.773Z,1.50
2017-11-15T07:28:46.371Z,1.40
2017-11-15T07:31:15.593Z,1.40
2017-11-15T07:33:43.157Z,1.40
2017-11-15T07:36:10.805Z,1.40
2017-11-15T07:38:42.338Z,1.50
2017-11-15T07:41:10.028Z,1.60
2017-11-15T07:43:37.486Z,1.70
2017-11-15T07:46:05.528Z,1.80
2017-11-15T07:48:33.782Z,1.90
2017-11-15T07:51:01.230Z,1.90
2017-11-15T07:53:30.121Z,2.00
2017-11-15T07:56:01.597Z,2.00
2017-11-15T07:58:29.883Z,2.20
2017-11-15T08:00:57.357Z,2.20
2017-11-15T08:03:25.560Z,2.40
2017-11-15T08:05:53.039Z,2.40
2017-11-15T08:08:20.541Z,2.40
2017-11-15T08:10:49.384Z,2.50
2017-11-15T08:13:18.936Z,2.50
2017-11-15T08:15:46.496Z,2.50
2017-11-15T08:18:15.406Z,2.60
2017-11-15T08:20:43.570Z,2.60
2017-11-15T08:23:13.069Z,2.60
2017-11-15T08:25:40.586Z,2.70
2017-11-15T08:28:08.630Z,2.70
2017-11-15T08:30:36.076Z,2.60
2017-11-15T08:33:03.526Z,2.70
2017-11-15T08:35:31.004Z,2.80
2017-11-15T08:38:01.454Z,2.80
2017-11-15T08:40:29.212Z,2.90
2017-11-15T08:42:56.686Z,2.90
2017-11-15T08:45:24.146Z,3.00
2017-11-15T08:47:52.538Z,3.00
2017-11-15T08:50:20.057Z,3.00
2017-11-15T08:52:47.543Z,3.00
2017-11-15T08:55:19.003Z,3.00
2017-11-15T08:57:47.403Z,3.00
2017-11-15T09:00:14.878Z,2.90
2017-11-15T09:02:42.318Z,3.00
2017-11-15T09:05:09.818Z,3.10
2017-11-15T09:07:37.525Z,3.20
2017-11-15T09:10:04.976Z,3.30
2017-11-15T09:12:32.456Z,3.40
2017-11-15T09:15:01.706Z,3.50
2017-11-15T09:17:29.666Z,3.50
2017-11-15T09:19:57.117Z,3.60
2017-11-15T09:22:25.497Z,3.70
2017-11-15T09:24:56.509Z,3.80
2017-11-15T09:27:24.230Z,3.90
2017-11-15T09:29:51.733Z,4.00
2017-11-15T09:32:19.182Z,4.20
2017-11-15T09:34:46.648Z,4.40
2017-11-15T09:37:14.358Z,4.40
2017-11-15T09:39:52.926Z,4.50
2017-11-15T09:42:20.394Z,4.50
2017-11-15T09:44:47.901Z,4.70
2017-11-15T09:47:16.023Z,4.90
2017-11-15T09:49:43.467Z,4.90
2017-11-15T09:52:11.702Z,4.90
2017-11-15T09:54:44.070Z,4.90
2017-11-15T09:57:11.595Z,5.00
2017-11-15T09:59:39.059Z,4.90
2017-11-15T10:02:06.675Z,4.90
2017-11-15T10:04:34.146Z,4.80
2017-11-15T10:07:02.470Z,4.90
2017-11-15T10:09:30.362Z,5.00
2017-11-15T10:11:57.822Z,5.10
2017-11-15T10:14:26.844Z,4.90
2017-11-15T10:17:01.363Z,4.90
2017-11-15T10:19:29.334Z,4.80
2017-11-15T10:21:56.825Z,4.80
2017-11-15T10:24:24.638Z,4.60
2017-11-15T10:26:55.483Z,4.70
2017-11-15T10:29:23.226Z,4.70
2017-11-15T10:31:50.670Z,4.70
2017-11-15T10:34:18.153Z,4.70
2017-11-15T10:36:45.590Z,4.70
2017-11-15T10:39:13.350Z,4.70
2017-11-15T10:41:40.802Z,4.70
2017-11-15T10:44:08.265Z,4.70
2017-11-15T10:46:35.715Z,4.80
2017-11-15T10:49:03.878Z,4.80
2017-11-15T10:51:31.486Z,4.80
2017-11-15T10:53:59.033Z,4.80
2017-11-15T10:56:31.086Z,4.90
2017-11-15T10:58:58.638Z,4.90
2017-11-15T11:01:26.115Z,5.10
2017-11-15T11:03:53.564Z,5.20
2017-11-15T11:06:21.009Z,5.30
2017-11-15T11:08:48.481Z,5.40
2017-11-15T11:11:15.919Z,5.50
2017-11-15T11:13:43.390Z,5.50
2017-11-15T11:16:10.848Z,5.40
2017-11-15T11:18:38.309Z,5.50
2017-11-15T11:21:05.770Z,5.60
2017-11-15T11:23:33.218Z,5.70
2017-11-15T11:26:05.179Z,5.90
2017-11-15T11:28:32.632Z,6.10
2017-11-15T11:31:00.066Z,5.90
2017-11-15T11:33:28.497Z,5.90
2017-11-15T11:35:56.810Z,5.90
2017-11-15T11:38:24.329Z,5.80
2017-11-15T11:40:52.654Z,5.80
2017-11-15T11:43:21.050Z,5.60
2017-11-15T11:45:48.493Z,5.70
2017-11-15T11:48:16.344Z,5.80
2017-11-15T11:50:43.899Z,5.90
2017-11-15T11:53:11.367Z,5.90
2017-11-15T11:55:38.982Z,5.90
2017-11-15T11:58:06.763Z,6.00
2017-11-15T12:00:34.502Z,6.00
2017-11-15T12:03:01.939Z,5.90
2017-11-15T12:05:30.265Z,5.90
2017-11-15T12:07:57.703Z,5.90
2017-11-15T12:10:25.167Z,5.70
2017-11-15T12:12:55.779Z,5.70
2017-11-15T12:15:24.761Z,5.80
2017-11-15T12:17:52.386Z,5.80
2017-11-15T12:20:19.853Z,5.90
2017-11-15T12:22:47.428Z,5.90
2017-11-15T12:25:14.870Z,6.10
2017-11-15T12:27:46.951Z,6.10
2017-11-15T12:30:14.398Z,6.10
2017-11-15T12:32:41.834Z,6.10
2017-11-15T12:35:09.316Z,6.10
2017-11-15T12:37:36.921Z,6.00
2017-11-15T12:40:05.168Z,5.90
2017-11-15T12:42:32.897Z,5.90
2017-11-15T12:45:00.355Z,6.00
2017-11-15T12:47:27.943Z,6.00
2017-11-15T12:49:55.382Z,6.00
2017-11-15T12:52:23.056Z,6.00
2017-11-15T12:54:50.509Z,5.90
2017-11-15T12:57:21.353Z,5.90
2017-11-15T12:59:49.026Z,5.90
2017-11-15T13:02:18.506Z,5.90
2017-11-15T13:04:45.942Z,5.90
2017-11-15T13:07:13.405Z,5.90
2017-11-15T13:09:41.418Z,5.90
2017-11-15T13:12:09.040Z,5.90
2017-11-15T13:14:36.490Z,5.90
2017-11-15T13:17:04.073Z,5.80
2017-11-15T13:19:31.556Z,5.70
2017-11-15T13:21:58.994Z,5.70
2017-11-15T13:24:26.793Z,5.70
2017-11-15T13:26:55.922Z,5.80
2017-11-15T13:29:23.395Z,5.80
2017-11-15T13:31:50.967Z,5.80
2017-11-15T13:34:18.425Z,5.80
2017-11-15T13:36:45.876Z,5.70
2017-11-15T13:39:14.159Z,5.80
2017-11-15T13:41:41.605Z,5.80
2017-11-15T13:44:09.055Z,5.80
2017-11-15T13:46:36.516Z,5.70
2017-11-15T13:49:04.063Z,5.60
2017-11-15T13:51:31.544Z,5.50
2017-11-15T13:53:59.030Z,5.50
2017-11-15T13:56:26.486Z,5.50
2017-11-15T13:58:57.037Z,5.50
2017-11-15T14:01:24.628Z,5.50
2017-11-15T14:03:53.437Z,5.50
2017-11-15T14:06:20.913Z,5.50
2017-11-15T14:08:48.594Z,5.60
2017-11-15T14:11:16.985Z,5.60
2017-11-15T14:13:44.502Z,5.60
2017-11-15T14:16:11.949Z,5.70
2017-11-15T14:18:39.649Z,5.60
2017-11-15T14:21:07.121Z,5.60
2017-11-15T14:23:34.562Z,5.50
2017-11-15T14:26:02.011Z,5.50
2017-11-15T14:28:29.465Z,5.40
2017-11-15T14:31:00.074Z,5.40
2017-11-15T14:33:27.571Z,5.40
2017-11-15T14:35:55.776Z,5.40
2017-11-15T14:38:23.453Z,5.30
2017-11-15T14:40:50.917Z,5.30
2017-11-15T14:43:18.386Z,5.30
2017-11-15T14:45:49.166Z,5.20
2017-11-15T14:48:16.717Z,5.10
2017-11-15T14:50:44.987Z,5.10
2017-11-15T14:53:12.593Z,5.10
2017-11-15T14:55:40.066Z,5.00
2017-11-15T14:58:07.803Z,4.90
2017-11-15T15:00:35.293Z,5.00
2017-11-15T15:03:02.819Z,5.00
2017-11-15T15:05:30.261Z,5.00
2017-11-15T15:07:57.739Z,4.90
2017-11-15T15:10:25.609Z,4.90
2017-11-15T15:12:54.014Z,4.70
2017-11-15T15:15:21.457Z,4.70
2017-11-15T15:17:48.903Z,4.70
2017-11-15T15:20:16.384Z,4.70
2017-11-15T15:22:44.088Z,4.60
2017-11-15T15:25:12.290Z,4.50
2017-11-15T15:27:39.881Z,4.50
2017-11-15T15:30:11.664Z,4.40
2017-11-15T15:32:39.230Z,4.40
2017-11-15T15:35:08.880Z,4.30
2017-11-15T15:37:36.362Z,4.20
2017-11-15T15:40:03.926Z,4.10
2017-11-15T15:42:32.189Z,4.10
2017-11-15T15:45:03.744Z,4.10
2017-11-15T15:47:31.205Z,4.10
2017-11-15T15:49:58.837Z,4.10
2017-11-15T15:52:28.583Z,4.00
2017-11-15T15:54:56.066Z,4.00
2017-11-15T15:57:23.542Z,4.00
2017-11-15T15:59:52.283Z,3.90
2017-11-15T16:02:19.770Z,4.00
2017-11-15T16:04:48.030Z,4.00
2017-11-15T16:07:16.755Z,4.00
2017-11-15T16:09:44.460Z,4.00
2017-11-15T16:12:11.966Z,4.00
2017-11-15T16:14:39.427Z,4.10
2017-11-15T16:17:06.873Z,4.10
2017-11-15T16:19:36.018Z,4.10
2017-11-15T16:22:03.499Z,4.10
2017-11-15T16:24:31.924Z,4.00
2017-11-15T16:26:59.696Z,4.00
2017-11-15T16:29:28.058Z,4.10
2017-11-15T16:32:10.242Z,4.10
2017-11-15T16:34:37.687Z,4.00
2017-11-15T16:37:05.929Z,4.00
2017-11-15T16:39:33.473Z,4.00
2017-11-15T16:42:01.992Z,4.00
2017-11-15T16:44:29.578Z,4.00
2017-11-15T16:46:57.854Z,4.00
2017-11-15T16:49:26.148Z,4.00
2017-11-15T16:51:53.609Z,4.00
2017-11-15T16:54:21.109Z,3.90
2017-11-15T16:56:48.597Z,3.80
2017-11-15T16:59:16.056Z,3.80
2017-11-15T17:01:46.869Z,3.80
2017-11-15T17:04:14.546Z,3.80
2017-11-15T17:06:42.002Z,3.90
2017-11-15T17:09:10.746Z,3.70
2017-11-15T17:11:38.295Z,3.70
2017-11-15T17:14:05.724Z,3.70
2017-11-15T17:16:37.139Z,3.70
2017-11-15T17:19:05.121Z,3.70
2017-11-15T17:21:32.581Z,3.70
2017-11-15T17:24:00.057Z,3.70
2017-11-15T17:26:27.543Z,3.70
2017-11-15T17:28:55.107Z,3.70
2017-11-15T17:31:22.825Z,3.70
2017-11-15T17:33:50.387Z,3.70
2017-11-15T17:36:19.275Z,3.70
2017-11-15T17:38:46.840Z,3.70
2017-11-15T17:41:15.061Z,3.70
2017-11-15T17:43:43.081Z,3.60
2017-11-15T17:46:10.541Z,3.60
2017-11-15T17:48:38.014Z,3.50
2017-11-15T17:51:05.542Z,3.50
2017-11-15T17:53:33.057Z,3.50
2017-11-15T17:56:00.545Z,3.50
2017-11-15T17:58:28.025Z,3.50
2017-11-15T18:00:55.570Z,3.50
2017-11-15T18:03:23.033Z,3.50
2017-11-15T18:05:51.009Z,3.50
2017-11-15T18:08:18.507Z,3.50
2017-11-15T18:10:46.110Z,3.50
2017-11-15T18:13:13.557Z,3.50
2017-11-15T18:15:41.006Z,3.60
2017-11-15T18:18:11.886Z,3.60
2017-11-15T18:20:39.342Z,3.70
2017-11-15T18:23:06.967Z,3.60
2017-11-15T18:25:34.973Z,3.60
2017-11-15T18:28:03.185Z,3.60
2017-11-15T18:30:30.642Z,3.60
2017-11-15T18:33:01.205Z,3.60
2017-11-15T18:35:28.689Z,3.60
2017-11-15T18:37:56.938Z,3.60
2017-11-15T18:40:25.293Z,3.60
2017-11-15T18:42:52.787Z,3.60
2017-11-15T18:45:20.230Z,3.60
2017-11-15T18:47:47.759Z,3.50
2017-11-15T18:50:15.222Z,3.40
2017-11-15T18:52:44.385Z,3.30
2017-11-15T18:55:12.622Z,3.30
2017-11-15T18:57:40.067Z,3.30
2017-11-15T19:00:09.037Z,3.30
2017-11-15T19:02:38.251Z,3.20
2017-11-15T19:05:05.689Z,3.20
2017-11-15T19:07:33.244Z,3.20
2017-11-15T19:10:00.970Z,3.20
2017-11-15T19:12:29.186Z,3.30
2017-11-15T19:14:58.398Z,3.30
2017-11-15T19:17:25.839Z,3.30
2017-11-15T19:19:56.829Z,3.30
2017-11-15T19:22:24.466Z,3.30
2017-11-15T19:24:53.494Z,3.20
2017-11-15T19:27:20.942Z,3.20
2017-11-15T19:29:48.370Z,3.20
2017-11-15T19:32:15.871Z,3.20
2017-11-15T19:34:43.315Z,3.20
2017-11-15T19:37:11.864Z,3.20
2017-11-15T19:39:39.313Z,3.20
2017-11-15T19:42:06.775Z,3.20
2017-11-15T19:44:34.948Z,3.20
2017-11-15T19:47:02.397Z,3.20
2017-11-15T19:49:34.504Z,3.20
2017-11-15T19:52:02.209Z,3.20
2017-11-15T19:54:29.921Z,3.30
2017-11-15T19:56:58.018Z,3.20
2017-11-15T19:59:26.746Z,3.30
2017-11-15T20:01:55.022Z,3.30
2017-11-15T20:04:22.494Z,3.30
2017-11-15T20:06:51.268Z,3.40
2017-11-15T20:09:18.730Z,3.40
2017-11-15T20:11:46.178Z,3.40
2017-11-15T20:14:13.657Z,3.30
2017-11-15T20:16:41.910Z,3.30
2017-11-15T20:19:09.834Z,3.30
2017-11-15T20:21:40.719Z,3.30
2017-11-15T20:24:08.198Z,3.30
2017-11-15T20:26:35.729Z,3.30
2017-11-15T20:29:03.318Z,3.30
2017-11-15T20:31:30.799Z,3.30
2017-11-15T20:34:00.517Z,3.40
2017-11-15T20:36:33.433Z,3.40
2017-11-15T20:39:01.039Z,3.40
2017-11-15T20:41:29.209Z,3.50
2017-11-15T20:43:56.643Z,3.60
2017-11-15T20:46:24.331Z,3.60
2017-11-15T20:48:51.802Z,3.60
2017-11-15T20:51:23.056Z,3.60
2017-11-15T20:53:50.514Z,3.70
2017-11-15T20:56:19.673Z,3.60
2017-11-15T20:58:47.160Z,3.60
2017-11-15T21:01:15.122Z,3.60
2017-11-15T21:03:42.598Z,3.60
2017-11-15T21:06:10.810Z,3.70
2017-11-15T21:08:39.490Z,3.60
2017-11-15T21:11:06.974Z,3.60
2017-11-15T21:13:34.753Z,3.60
2017-11-15T21:16:03.011Z,3.60
2017-11-15T21:18:30.542Z,3.70
2017-11-15T21:21:02.372Z,3.60
2017-11-15T21:23:29.814Z,3.60
2017-11-15T21:25:58.047Z,3.60
2017-11-15T21:28:25.482Z,3.60
2017-11-15T21:30:53.258Z,3.70
2017-11-15T21:33:20.780Z,3.60
2017-11-15T21:35:48.234Z,3.60
2017-11-15T21:38:15.698Z,3.60
2017-11-15T21:40:43.141Z,3.60
2017-11-15T21:43:10.613Z,3.60
2017-11-15T21:45:38.418Z,3.70
2017-11-15T21:48:06.506Z,3.60
2017-11-15T21:50:34.024Z,3.60
2017-11-15T21:53:01.466Z,3.60
2017-11-15T21:55:30.613Z,3.60
2017-11-15T21:57:58.113Z,3.60
2017-11-15T22:00:25.550Z,3.70
2017-11-15T22:02:53.022Z,3.70
2017-11-15T22:05:21.246Z,3.70
2017-11-15T22:07:48.729Z,3.70
2017-11-15T22:10:16.175Z,3.70
2017-11-15T22:12:43.619Z,3.60
2017-11-15T22:15:11.194Z,3.60
2017-11-15T22:17:38.985Z,3.60
2017-11-15T22:20:06.463Z,3.60
2017-11-15T22:22:34.697Z,3.70
2017-11-15T22:25:02.678Z,3.60
2017-11-15T22:27:30.465Z,3.70
2017-11-15T22:29:58.106Z,3.70
2017-11-15T22:32:25.577Z,3.70
2017-11-15T22:34:53.065Z,3.80
2017-11-15T22:37:23.638Z,3.70
2017-11-15T22:39:51.074Z,3.80
2017-11-15T22:42:18.522Z,3.90
2017-11-15T22:44:46.014Z,4.00
2017-11-15T22:47:13.451Z,4.00
2017-11-15T22:49:41.867Z,4.10
2017-11-15T22:52:09.302Z,4.10
2017-11-15T22:54:36.749Z,4.00
2017-11-15T22:57:04.209Z,4.00
2017-11-15T22:59:31.656Z,3.90
2017-11-15T23:01:59.459Z,3.90
2017-11-15T23:04:26.918Z,3.90
2017-11-15T23:06:55.574Z,3.90
2017-11-15T23:09:23.039Z,3.80
2017-11-15T23:11:50.794Z,3.80
2017-11-15T23:14:18.237Z,3.70
2017-11-15T23:16:45.699Z,3.70
2017-11-15T23:19:13.159Z,3.70
2017-11-15T23:21:40.827Z,3.70
2017-11-15T23:24:09.310Z,3.60
2017-11-15T23:26:36.840Z,3.60
2017-11-15T23:29:04.319Z,3.60
2017-11-15T23:31:31.894Z,3.60
2017-11-15T23:33:59.451Z,3.60
2017-11-15T23:36:26.894Z,3.60
2017-11-15T23:38:54.361Z,3.60
2017-11-15T23:41:22.749Z,3.60
2017-11-15T23:43:50.189Z,3.50
2017-11-15T23:46:17.649Z,3.50
2017-11-15T23:48:45.293Z,3.50
2017-11-15T23:51:12.776Z,3.50
2017-11-15T23:53:40.230Z,3.50
2017-11-15T23:56:07.705Z,3.60
2017-11-15T23:58:35.154Z,3.50
